KHLG/HLG METAR and TAF weather

Enter ICAO airport designator
Station Type Date Time Source
KHLG METAR 2019/06/18 05:03 UTC NOAA

KHLG 180503Z AUTO 13004KT 1 3/4SM -RA BR SCT026 BKN065 OVC100 21/20 A2997 RMK AO2 P0001 T02060200


Station Type Date Time Source
KHLG Decoded METAR 2019/06/18 05:03 UTC NOAA

WHEELING OHIO COUNTY AIRPORT, WV, United States (KHLG) 40-10N 080-39W 372M
Jun 18, 2019 - 01:03 AM EDT / 2019.06.18 0503 UTC
Wind: from the SE (130 degrees) at 5 MPH (4 KT):0
Visibility: 1 3/4 mile(s):0
Sky conditions: overcast
Weather: light rain; mist
Precipitation last hour: 0.01 inches
Temperature: 69.1 F (20.6 C)
Dew Point: 68.0 F (20.0 C)
Relative Humidity: 96%
Pressure (altimeter): 29.97 in. Hg (1014 hPa)
ob: KHLG 180503Z AUTO 13004KT 1 3/4SM -RA BR SCT026 BKN065 OVC100 21/20 A2997 RMK AO2 P0001 T02060200
cycle: 5

Station Type Date Time Source
KHLG TAF 2019/06/18 05:03 UTC NOAA

TAF
AMD KHLG 180501Z 1805/1824 VRB03KT 3SM -RA BR OVC035
FM180800 17010KT P6SM OVC010
FM181900 24003KT P6SM VCSH BKN025

Example: see airport list